createdAt,value
2018-02-04T00:02:17.436Z,1.10
2018-02-04T00:04:44.994Z,1.17
2018-02-04T00:07:12.741Z,0.90
2018-02-04T00:09:41.079Z,0.80
2018-02-04T00:12:08.732Z,1.10
2018-02-04T00:14:36.288Z,0.90
2018-02-04T00:17:03.884Z,1.00
2018-02-04T00:19:31.457Z,1.20
2018-02-04T00:21:59.770Z,0.80
2018-02-04T00:24:27.346Z,1.00
2018-02-04T00:26:54.882Z,1.10
2018-02-04T00:29:22.463Z,1.00
2018-02-04T00:31:50.344Z,0.80
2018-02-04T00:34:17.956Z,1.10
2018-02-04T00:36:45.530Z,1.20
2018-02-04T00:39:13.149Z,0.70
2018-02-04T00:41:40.754Z,1.40
2018-02-04T00:44:08.329Z,1.30
2018-02-04T00:46:36.138Z,1.07
2018-02-04T00:49:04.563Z,1.27
2018-02-04T00:51:32.168Z,1.07
2018-02-04T00:54:00.703Z,1.03
2018-02-04T00:56:28.265Z,1.30
2018-02-04T00:58:56.133Z,1.23
2018-02-04T01:01:23.709Z,1.20
2018-02-04T01:03:51.273Z,1.20
2018-02-04T01:06:18.868Z,1.20
2018-02-04T01:08:47.295Z,1.07
2018-02-04T01:11:14.869Z,0.83
2018-02-04T01:13:42.441Z,1.10
2018-02-04T01:16:10.131Z,1.53
2018-02-04T01:18:38.482Z,1.27
2018-02-04T01:21:06.055Z,1.20
2018-02-04T01:23:33.591Z,1.17
2018-02-04T01:26:01.225Z,1.53
2018-02-04T01:28:28.736Z,1.40
2018-02-04T01:30:56.312Z,1.33
2018-02-04T01:33:24.726Z,1.43
2018-02-04T01:35:52.289Z,1.10
2018-02-04T01:38:19.904Z,1.20
2018-02-04T01:40:48.250Z,1.00
2018-02-04T01:43:15.814Z,1.13
2018-02-04T01:45:43.389Z,1.23
2018-02-04T01:48:10.927Z,1.53
2018-02-04T01:50:38.657Z,1.00
2018-02-04T01:53:06.201Z,1.20
2018-02-04T01:55:34.663Z,1.33
2018-02-04T01:58:02.241Z,1.10
2018-02-04T02:00:30.738Z,2.10
2018-02-04T02:02:59.083Z,1.17
2018-02-04T02:05:26.661Z,1.50
2018-02-04T02:07:54.264Z,1.30
2018-02-04T02:10:21.823Z,0.73
2018-02-04T02:12:49.422Z,1.10
2018-02-04T02:15:17.133Z,1.17
2018-02-04T02:17:44.710Z,1.17
2018-02-04T02:20:12.279Z,1.20
2018-02-04T02:22:39.897Z,1.03
2018-02-04T02:25:08.266Z,0.80
2018-02-04T02:27:35.827Z,1.33
2018-02-04T02:30:03.373Z,1.00
2018-02-04T02:32:31.722Z,0.97
2018-02-04T02:34:59.329Z,1.00
2018-02-04T02:37:26.905Z,1.07
2018-02-04T02:39:54.497Z,1.43
2018-02-04T02:42:22.051Z,1.00
2018-02-04T02:44:50.475Z,1.00
2018-02-04T02:47:18.805Z,1.33
2018-02-04T02:49:46.413Z,1.07
2018-02-04T02:52:14.097Z,1.20
2018-02-04T02:54:41.687Z,0.80
2018-02-04T02:57:10.009Z,1.00
2018-02-04T02:59:38.365Z,0.80
2018-02-04T03:02:05.931Z,1.00
2018-02-04T03:04:33.476Z,1.10
2018-02-04T03:07:01.013Z,1.33
2018-02-04T03:09:28.659Z,0.87
2018-02-04T03:11:56.196Z,1.23
2018-02-04T03:14:24.569Z,1.10
2018-02-04T03:16:52.881Z,1.00
2018-02-04T03:19:20.461Z,1.00
2018-02-04T03:21:48.151Z,1.20
2018-02-04T03:24:15.737Z,0.80
2018-02-04T03:26:43.306Z,0.90
2018-02-04T03:29:10.869Z,1.37
2018-02-04T03:31:38.477Z,1.07
2018-02-04T03:34:06.013Z,1.10
2018-02-04T03:36:33.836Z,1.00
2018-02-04T03:39:02.191Z,0.73
2018-02-04T03:41:29.797Z,1.03
2018-02-04T03:43:57.487Z,0.90
2018-02-04T03:46:25.082Z,0.80
2018-02-04T03:48:53.551Z,1.00
2018-02-04T03:51:21.333Z,1.40
2018-02-04T03:53:49.690Z,0.90
2018-02-04T03:56:17.237Z,0.80
2018-02-04T03:58:45.583Z,0.90
2018-02-04T04:01:13.157Z,0.97
2018-02-04T04:03:40.703Z,1.20
2018-02-04T04:06:08.321Z,0.87
2018-02-04T04:08:37.046Z,1.00
2018-02-04T04:11:04.651Z,1.00
2018-02-04T04:13:32.235Z,1.20
2018-02-04T04:16:00.583Z,1.27
2018-02-04T04:18:28.177Z,0.93
2018-02-04T04:20:56.528Z,1.20
2018-02-04T04:23:24.127Z,1.03
2018-02-04T04:25:51.902Z,1.63
2018-02-04T04:28:19.513Z,1.03
2018-02-04T04:30:47.076Z,1.10
2018-02-04T04:33:14.707Z,1.30
2018-02-04T04:35:42.422Z,1.07
2018-02-04T04:38:10.732Z,1.10
2018-02-04T04:40:38.329Z,1.30
2018-02-04T04:43:06.728Z,1.23
2018-02-04T04:45:35.042Z,1.13
2018-02-04T04:48:02.816Z,1.23
2018-02-04T04:50:30.394Z,1.30
2018-02-04T04:52:57.933Z,1.17
2018-02-04T04:55:26.283Z,1.30
2018-02-04T04:57:54.828Z,1.10
2018-02-04T05:00:22.389Z,1.03
2018-02-04T05:02:50.030Z,1.10
2018-02-04T05:05:17.727Z,1.43
2018-02-04T05:07:45.328Z,1.00
2018-02-04T05:10:12.958Z,1.00
2018-02-04T05:12:41.347Z,1.30
2018-02-04T05:15:09.772Z,0.87
2018-02-04T05:17:38.382Z,1.17
2018-02-04T05:20:06.432Z,0.93
2018-02-04T05:22:34.194Z,1.00
2018-02-04T05:25:01.822Z,1.03
2018-02-04T05:27:29.744Z,1.10
2018-02-04T05:29:57.340Z,1.13
2018-02-04T05:32:24.948Z,0.60
2018-02-04T05:34:52.534Z,1.13
2018-02-04T05:37:20.212Z,0.90
2018-02-04T05:39:47.836Z,0.80
2018-02-04T05:42:15.672Z,0.70
2018-02-04T05:44:43.252Z,0.70
2018-02-04T05:47:10.888Z,0.67
2018-02-04T05:49:38.432Z,1.30
2018-02-04T05:52:05.997Z,0.90
2018-02-04T05:54:33.664Z,1.20
2018-02-04T05:57:01.479Z,1.00
2018-02-04T05:59:29.034Z,0.70
2018-02-04T06:01:56.584Z,1.20
2018-02-04T06:04:24.176Z,1.27
2018-02-04T06:06:52.492Z,0.93
2018-02-04T06:09:20.064Z,0.90
2018-02-04T06:11:47.798Z,1.17
2018-02-04T06:14:15.366Z,1.27
2018-02-04T06:16:42.956Z,1.40
2018-02-04T06:19:10.536Z,1.03
2018-02-04T06:21:38.090Z,1.23
2018-02-04T06:24:06.440Z,1.13
2018-02-04T06:26:34.010Z,1.10
2018-02-04T06:29:01.580Z,0.80
2018-02-04T06:31:29.162Z,0.80
2018-02-04T06:33:56.720Z,0.70
2018-02-04T06:36:24.353Z,1.60
2018-02-04T06:38:52.702Z,1.00
2018-02-04T06:41:20.264Z,1.20
2018-02-04T06:43:47.918Z,1.10
2018-02-04T06:46:15.488Z,1.17
2018-02-04T06:48:43.078Z,0.90
2018-02-04T06:51:10.649Z,1.13
2018-02-04T06:53:38.253Z,0.70
2018-02-04T06:56:06.587Z,0.90
2018-02-04T06:58:34.173Z,1.00
2018-02-04T07:01:02.478Z,0.70
2018-02-04T07:03:30.078Z,1.20
2018-02-04T07:05:57.688Z,1.30
2018-02-04T07:08:25.245Z,2.83
2018-02-04T07:10:53.559Z,1.70
2018-02-04T07:13:21.136Z,1.73
2018-02-04T07:15:48.665Z,0.87
2018-02-04T07:18:16.261Z,0.83
2018-02-04T07:20:44.039Z,1.13
2018-02-04T07:23:12.343Z,1.20
2018-02-04T07:25:39.934Z,1.70
2018-02-04T07:28:07.540Z,2.10
2018-02-04T07:30:35.635Z,3.07
2018-02-04T07:33:03.430Z,2.47
2018-02-04T07:35:31.007Z,4.50
2018-02-04T07:37:58.819Z,3.13
2018-02-04T07:40:27.185Z,2.70
2018-02-04T07:42:55.561Z,2.77
2018-02-04T07:45:23.897Z,1.73
2018-02-04T07:47:51.523Z,2.30
2018-02-04T07:50:19.099Z,2.03
2018-02-04T07:52:46.687Z,2.10
2018-02-04T07:55:14.285Z,1.40
2018-02-04T07:57:42.587Z,1.70
2018-02-04T08:00:10.163Z,1.67
2018-02-04T08:02:37.763Z,2.30
2018-02-04T08:05:06.899Z,1.70
2018-02-04T08:07:34.497Z,1.67
2018-02-04T08:10:02.189Z,1.40
2018-02-04T08:12:30.525Z,2.13
2018-02-04T08:14:58.175Z,1.60
2018-02-04T08:17:25.817Z,1.50
2018-02-04T08:19:54.155Z,1.53
2018-02-04T08:22:21.717Z,2.83
2018-02-04T08:24:49.292Z,1.90
2018-02-04T08:27:16.923Z,2.33
2018-02-04T08:29:44.486Z,2.10
2018-02-04T08:32:12.073Z,1.93
2018-02-04T08:34:39.612Z,2.20
2018-02-04T08:37:07.205Z,2.60
2018-02-04T08:39:35.537Z,1.57
2018-02-04T08:42:03.100Z,2.00
2018-02-04T08:44:30.717Z,1.63
2018-02-04T08:46:58.261Z,2.00
2018-02-04T08:49:26.627Z,1.33
2018-02-04T08:51:54.206Z,1.17
2018-02-04T08:54:22.585Z,2.00
2018-02-04T08:56:50.300Z,1.97
2018-02-04T08:59:18.040Z,3.27
2018-02-04T09:01:45.601Z,1.97
2018-02-04T09:04:13.208Z,2.10
2018-02-04T09:06:40.955Z,2.03
2018-02-04T09:09:08.511Z,1.97
2018-02-04T09:11:36.107Z,2.70
2018-02-04T09:14:04.725Z,1.87
2018-02-04T09:16:32.279Z,1.87
2018-02-04T09:18:59.847Z,1.63
2018-02-04T09:21:27.525Z,1.87
2018-02-04T09:23:55.095Z,1.80
2018-02-04T09:26:22.952Z,2.80
2018-02-04T09:28:50.541Z,2.20
2018-02-04T09:31:18.105Z,5.33
2018-02-04T09:33:45.901Z,4.57
2018-02-04T09:36:13.433Z,4.60
2018-02-04T09:38:41.804Z,6.90
2018-02-04T09:41:09.349Z,5.90
2018-02-04T09:43:36.935Z,6.30
2018-02-04T09:46:05.222Z,4.60
2018-02-04T09:48:32.807Z,6.20
2018-02-04T09:51:00.358Z,4.77
2018-02-04T09:53:27.913Z,5.00
2018-02-04T09:55:55.511Z,5.07
2018-02-04T09:58:23.058Z,4.60
2018-02-04T10:00:51.625Z,3.00
2018-02-04T10:03:19.170Z,1.80
2018-02-04T10:05:46.802Z,2.37
2018-02-04T10:08:14.426Z,2.70
2018-02-04T10:10:42.034Z,3.00
2018-02-04T10:13:10.357Z,1.77
2018-02-04T10:15:37.926Z,2.13
2018-02-04T10:18:05.557Z,2.10
2018-02-04T10:20:33.166Z,2.30
2018-02-04T10:23:00.717Z,1.90
2018-02-04T10:25:28.356Z,1.80
2018-02-04T10:27:55.854Z,2.07
2018-02-04T10:30:23.442Z,2.47
2018-02-04T10:32:51.798Z,2.50
2018-02-04T10:35:19.436Z,2.30
2018-02-04T10:37:47.042Z,2.17
2018-02-04T10:40:15.367Z,2.17
2018-02-04T10:42:42.955Z,3.63
2018-02-04T10:45:10.563Z,5.00
2018-02-04T10:47:38.102Z,4.77
2018-02-04T10:50:06.453Z,3.97
2018-02-04T10:52:33.973Z,4.20
2018-02-04T10:55:01.632Z,4.50
2018-02-04T10:57:30.040Z,3.87
2018-02-04T10:59:57.634Z,4.43
2018-02-04T11:02:26.176Z,4.40
2018-02-04T11:04:54.356Z,3.30
2018-02-04T11:07:22.683Z,3.03
2018-02-04T11:09:50.276Z,4.53
2018-02-04T11:12:17.866Z,3.30
2018-02-04T11:14:45.486Z,6.70
2018-02-04T11:17:13.054Z,5.27
2018-02-04T11:19:40.746Z,4.70
2018-02-04T11:22:08.362Z,3.43
2018-02-04T11:24:36.088Z,4.07
2018-02-04T11:27:03.630Z,4.17
2018-02-04T11:29:31.229Z,3.77
2018-02-04T11:31:58.862Z,3.60
2018-02-04T11:34:26.446Z,3.57
2018-02-04T11:36:54.060Z,4.00
2018-02-04T11:39:21.644Z,2.43
2018-02-04T11:41:50.010Z,2.70
2018-02-04T11:44:17.606Z,2.90
2018-02-04T11:46:45.179Z,2.60
2018-02-04T11:49:12.782Z,3.37
2018-02-04T11:51:40.336Z,2.37
2018-02-04T11:54:08.788Z,3.40
2018-02-04T11:56:36.580Z,3.03
2018-02-04T11:59:04.130Z,2.57
2018-02-04T12:01:31.683Z,2.47
2018-02-04T12:03:59.266Z,2.53
2018-02-04T12:06:26.884Z,2.50
2018-02-04T12:08:55.614Z,3.80
2018-02-04T12:11:23.210Z,3.80
2018-02-04T12:13:51.567Z,3.40
2018-02-04T12:16:19.996Z,2.40
2018-02-04T12:18:47.594Z,2.77
2018-02-04T12:21:15.968Z,2.50
2018-02-04T12:23:43.556Z,3.20
2018-02-04T12:26:11.920Z,3.37
2018-02-04T12:28:41.050Z,2.60
2018-02-04T12:31:08.632Z,3.27
2018-02-04T12:33:36.164Z,2.87
2018-02-04T12:36:03.799Z,2.00
2018-02-04T12:38:32.276Z,2.13
2018-02-04T12:40:59.888Z,2.20
2018-02-04T12:43:27.638Z,1.87
2018-02-04T12:45:55.180Z,2.30
2018-02-04T12:48:23.542Z,1.53
2018-02-04T12:50:51.140Z,1.70
2018-02-04T12:53:18.709Z,1.30
2018-02-04T12:55:46.292Z,1.60
2018-02-04T12:58:13.878Z,1.57
2018-02-04T13:00:41.432Z,2.20
2018-02-04T13:03:09.025Z,1.50
2018-02-04T13:05:36.572Z,1.20
2018-02-04T13:08:04.928Z,1.30
2018-02-04T13:10:34.222Z,2.10
2018-02-04T13:13:02.544Z,1.60
2018-02-04T13:15:30.092Z,2.20
2018-02-04T13:17:57.840Z,1.40
2018-02-04T13:20:25.480Z,1.37
2018-02-04T13:22:53.093Z,1.53
2018-02-04T13:25:20.678Z,1.23
2018-02-04T13:27:48.229Z,0.90
2018-02-04T13:30:15.814Z,1.50
2018-02-04T13:32:43.392Z,1.30
2018-02-04T13:35:11.016Z,9.00
2018-02-04T13:37:39.526Z,12.37
2018-02-04T13:40:07.166Z,10.10
2018-02-04T13:42:34.768Z,7.93
2018-02-04T13:45:02.436Z,5.90
2018-02-04T13:47:30.765Z,3.83
2018-02-04T13:49:58.342Z,3.67
2018-02-04T13:52:25.984Z,3.13
2018-02-04T13:57:56.544Z,2.60
2018-02-04T14:00:24.865Z,3.00
2018-02-04T14:02:52.446Z,2.37
2018-02-04T14:05:20.021Z,2.03
2018-02-04T14:07:47.640Z,2.60
2018-02-04T14:10:15.196Z,3.10
2018-02-04T14:12:42.768Z,2.70
2018-02-04T14:15:10.403Z,2.83
2018-02-04T14:17:38.024Z,2.00
2018-02-04T14:20:05.518Z,2.60
2018-02-04T14:22:33.186Z,1.90
2018-02-04T14:25:01.675Z,2.30
2018-02-04T14:27:29.227Z,1.90
2018-02-04T14:29:57.001Z,2.40
2018-02-04T14:32:24.747Z,2.40
2018-02-04T14:34:52.316Z,2.40
2018-02-04T14:37:19.914Z,2.47
2018-02-04T14:39:47.459Z,3.63
2018-02-04T14:42:15.951Z,2.63
2018-02-04T14:44:43.533Z,2.43
2018-02-04T14:47:11.137Z,2.80
2018-02-04T14:49:38.724Z,2.10
2018-02-04T14:52:06.303Z,2.00
2018-02-04T14:54:33.883Z,1.67
2018-02-04T14:57:02.375Z,1.40
2018-02-04T14:59:30.761Z,1.23
2018-02-04T15:01:59.071Z,1.27
2018-02-04T15:04:26.620Z,2.23
2018-02-04T15:06:54.219Z,1.33
2018-02-04T15:09:21.775Z,1.60
2018-02-04T15:11:49.373Z,1.47
2018-02-04T15:14:17.732Z,1.03
2018-02-04T15:16:45.311Z,1.93
2018-02-04T15:19:13.681Z,1.27
2018-02-04T15:21:42.001Z,1.67
2018-02-04T15:24:09.703Z,1.70
2018-02-04T15:26:37.277Z,1.33
2018-02-04T15:29:05.613Z,1.33
2018-02-04T15:31:33.205Z,1.27
2018-02-04T15:34:00.782Z,1.20
2018-02-04T15:36:29.157Z,1.60
2018-02-04T15:38:57.556Z,1.23
2018-02-04T15:41:25.110Z,1.97
2018-02-04T15:43:52.701Z,2.13
2018-02-04T15:46:20.276Z,2.07
2018-02-04T15:48:47.829Z,2.03
2018-02-04T15:51:15.393Z,1.27
2018-02-04T15:53:43.795Z,1.90
2018-02-04T15:56:12.861Z,2.00
2018-02-04T15:58:40.513Z,1.63
2018-02-04T16:01:08.075Z,2.33
2018-02-04T16:03:35.666Z,2.00
2018-02-04T16:06:03.240Z,2.70
2018-02-04T16:08:31.586Z,2.00
2018-02-04T16:10:59.169Z,1.80
2018-02-04T16:13:26.714Z,2.03
2018-02-04T16:15:54.305Z,6.70
2018-02-04T16:18:22.653Z,19.37
2018-02-04T16:20:50.291Z,52.77
2018-02-04T16:23:17.913Z,59.20
2018-02-04T16:25:45.588Z,71.97
2018-02-04T16:28:13.321Z,843.13
2018-02-04T16:30:40.925Z,970.97
2018-02-04T16:33:08.484Z,695.80
2018-02-04T16:35:36.094Z,686.60
2018-02-04T16:38:03.675Z,664.70
2018-02-04T16:40:32.029Z,450.20
2018-02-04T16:43:00.333Z,306.07
2018-02-04T16:45:28.039Z,269.77
2018-02-04T16:47:56.572Z,248.67
2018-02-04T16:50:24.982Z,233.53
2018-02-04T16:52:52.680Z,195.77
2018-02-04T16:55:20.320Z,171.20
2018-02-04T16:57:47.896Z,148.90
2018-02-04T17:00:15.779Z,136.90
2018-02-04T17:02:43.510Z,111.20
2018-02-04T17:05:11.134Z,96.67
2018-02-04T17:07:39.458Z,83.10
2018-02-04T17:10:07.060Z,76.07
2018-02-04T17:12:35.404Z,61.57
2018-02-04T17:15:03.008Z,45.20
2018-02-04T17:17:31.351Z,27.87
2018-02-04T17:19:58.988Z,24.60
2018-02-04T17:22:26.544Z,21.63
2018-02-04T17:24:54.115Z,25.47
2018-02-04T17:27:22.160Z,27.33
2018-02-04T17:29:49.828Z,27.37
2018-02-04T17:32:17.433Z,24.40
2018-02-04T17:34:45.034Z,23.63
2018-02-04T17:37:12.631Z,22.13
2018-02-04T17:39:40.227Z,21.90
2018-02-04T17:42:08.701Z,18.27
2018-02-04T17:44:36.298Z,18.87
2018-02-04T17:47:03.874Z,15.87
2018-02-04T17:49:31.483Z,13.70
2018-02-04T17:51:59.843Z,12.00
2018-02-04T17:54:27.524Z,10.60
2018-02-04T17:56:55.229Z,8.93
2018-02-04T17:59:22.818Z,8.23
2018-02-04T18:01:50.430Z,7.67
2018-02-04T18:04:18.229Z,8.60
2018-02-04T18:06:45.812Z,5.97
2018-02-04T18:09:13.438Z,6.90
2018-02-04T18:11:41.032Z,6.40
2018-02-04T18:14:10.145Z,6.13
2018-02-04T18:16:37.753Z,4.93
2018-02-04T18:19:05.340Z,5.70
2018-02-04T18:21:32.932Z,4.83
2018-02-04T18:24:01.365Z,4.80
2018-02-04T18:26:29.098Z,4.43
2018-02-04T18:28:56.811Z,6.03
2018-02-04T18:31:24.384Z,4.60
2018-02-04T18:33:52.098Z,3.30
2018-02-04T18:36:19.858Z,4.97
2018-02-04T18:38:47.462Z,4.40
2018-02-04T18:41:15.134Z,3.20
2018-02-04T18:43:42.757Z,4.27
2018-02-04T18:46:10.380Z,1.90
2018-02-04T18:48:38.708Z,3.67
2018-02-04T18:51:06.343Z,5.97
2018-02-04T18:53:33.974Z,3.30
2018-02-04T18:56:02.360Z,3.87
2018-02-04T18:58:30.861Z,3.87
2018-02-04T19:00:58.481Z,3.10
2018-02-04T19:03:26.355Z,2.43
2018-02-04T19:05:54.891Z,2.90
2018-02-04T19:08:22.505Z,3.83
2018-02-04T19:10:50.857Z,2.20
2018-02-04T19:13:18.684Z,2.27
2018-02-04T19:15:46.350Z,2.20
2018-02-04T19:18:14.086Z,2.00
2018-02-04T19:20:43.763Z,2.60
2018-02-04T19:23:11.876Z,1.83
2018-02-04T19:25:40.305Z,1.50
2018-02-04T19:28:07.892Z,1.83
2018-02-04T19:30:36.300Z,2.10
2018-02-04T19:33:03.990Z,1.80
2018-02-04T19:35:31.601Z,3.30
2018-02-04T19:37:59.972Z,2.10
2018-02-04T19:40:28.302Z,1.90
2018-02-04T19:42:55.954Z,1.83
2018-02-04T19:45:23.808Z,1.63
2018-02-04T19:47:51.496Z,5.73
2018-02-04T19:50:19.202Z,23.90
2018-02-04T19:52:47.578Z,10.63
2018-02-04T19:55:15.929Z,5.80
2018-02-04T19:57:43.683Z,4.37
2018-02-04T20:00:11.347Z,3.77
2018-02-04T20:02:39.810Z,4.40
2018-02-04T20:05:07.395Z,3.33
2018-02-04T20:07:35.013Z,2.50
2018-02-04T20:10:02.622Z,3.27
2018-02-04T20:12:30.325Z,2.93
2018-02-04T20:14:57.979Z,2.70
2018-02-04T20:17:25.564Z,2.77
2018-02-04T20:19:53.530Z,2.60
2018-02-04T20:22:22.021Z,2.60
2018-02-04T20:24:49.756Z,2.30
2018-02-04T20:27:19.043Z,2.67
2018-02-04T20:29:47.444Z,2.87
2018-02-04T20:32:26.905Z,3.00
2018-02-04T20:34:54.533Z,2.90
2018-02-04T20:37:23.005Z,2.40
2018-02-04T20:40:03.913Z,2.60
2018-02-04T20:42:32.286Z,2.87
2018-02-04T20:45:00.687Z,2.40
2018-02-04T20:47:28.407Z,2.53
2018-02-04T20:49:56.763Z,2.00
2018-02-04T20:52:24.489Z,2.90
2018-02-04T20:54:52.132Z,2.53
2018-02-04T20:57:20.665Z,2.30
2018-02-04T20:59:49.159Z,3.87
2018-02-04T21:02:16.822Z,2.03
2018-02-04T21:04:44.450Z,2.27
2018-02-04T21:07:12.052Z,1.90
2018-02-04T21:09:40.432Z,2.30
2018-02-04T21:12:09.215Z,2.03
2018-02-04T21:14:37.039Z,2.57
2018-02-04T21:17:04.608Z,2.20
2018-02-04T21:19:32.265Z,2.00
2018-02-04T21:21:59.847Z,1.80
2018-02-04T21:24:27.423Z,2.00
2018-02-04T21:26:55.029Z,1.50
2018-02-04T21:29:23.565Z,1.90
2018-02-04T21:31:51.187Z,1.83
2018-02-04T21:34:18.820Z,2.20
2018-02-04T21:36:47.381Z,1.80
2018-02-04T21:39:14.949Z,1.57
2018-02-04T21:41:42.516Z,1.83
2018-02-04T21:44:10.219Z,1.47
2018-02-04T21:46:37.775Z,1.30
2018-02-04T21:49:05.347Z,1.73
2018-02-04T21:51:32.977Z,1.70
2018-02-04T21:54:02.244Z,1.47
2018-02-04T21:56:29.779Z,2.10
2018-02-04T21:58:57.431Z,1.27
2018-02-04T22:01:25.020Z,1.57
2018-02-04T22:03:52.539Z,5.63
2018-02-04T22:06:20.157Z,2.80
2018-02-04T22:08:48.630Z,2.83
2018-02-04T22:11:16.967Z,2.63
2018-02-04T22:13:44.529Z,3.33
2018-02-04T22:16:12.119Z,2.87
2018-02-04T22:18:39.657Z,2.33
2018-02-04T22:21:07.234Z,1.50
2018-02-04T22:23:36.595Z,2.90
2018-02-04T22:26:04.162Z,2.00
2018-02-04T22:28:31.729Z,2.80
2018-02-04T22:30:59.324Z,1.80
2018-02-04T22:33:27.071Z,1.87
2018-02-04T22:35:54.658Z,2.40
2018-02-04T22:38:23.013Z,1.93
2018-02-04T22:40:50.694Z,2.80
2018-02-04T22:43:18.349Z,2.40
2018-02-04T22:45:45.943Z,1.53
2018-02-04T22:48:13.488Z,2.77
2018-02-04T22:50:41.818Z,2.10
2018-02-04T22:53:09.370Z,2.27
2018-02-04T22:55:36.965Z,3.17
2018-02-04T22:58:04.542Z,2.10
2018-02-04T23:00:33.056Z,2.13
2018-02-04T23:03:00.592Z,2.40
2018-02-04T23:05:29.089Z,2.20
2018-02-04T23:07:56.823Z,2.87
2018-02-04T23:10:25.146Z,2.23
2018-02-04T23:12:52.710Z,2.20
2018-02-04T23:15:20.378Z,2.20
2018-02-04T23:17:47.946Z,2.40
2018-02-04T23:20:15.533Z,2.50
2018-02-04T23:22:43.083Z,2.53
2018-02-04T23:25:11.435Z,1.77
2018-02-04T23:27:39.056Z,2.10
2018-02-04T23:30:07.350Z,2.50
2018-02-04T23:32:34.897Z,2.47
2018-02-04T23:35:02.490Z,2.23
2018-02-04T23:37:30.229Z,3.17
2018-02-04T23:39:57.850Z,1.93
2018-02-04T23:42:25.428Z,2.13
2018-02-04T23:44:53.900Z,1.80
2018-02-04T23:47:21.462Z,2.60
2018-02-04T23:49:49.820Z,2.67
2018-02-04T23:52:17.374Z,2.30
2018-02-04T23:54:45.038Z,1.87
2018-02-04T23:57:12.712Z,2.03
2018-02-04T23:59:40.424Z,2.33
